Hoko, Washington
Current Conditions -  °F | °C
As of 3:53 AM on Friday 24 Oct 2014 (Local Time) from KUIL Reporting Station
Clear Clear  
Wind Chill: 41°   Ceiling: Unl
Heat Index: 45°   Visibility: 8mi
Dew Point: 44°   Wind: 7mph
Humidity: 97%   Direction: 70°ENE
Pressure: 29.97"   Gusts: NA
Location:  48.1832°N, 124.531°W
Report Text: KUIL 241053Z AUTO 07006KT 8SM CLR 07/07 A2997 RMK AO2 SLP149 T00720067
Loading
Personal Weather Stations






























Interactive Weather Map
Tropical Storm Tracking
New forecast layout! Learn more

10-Day Weather Forecast

Advertisements
Track Severe Weather on mobile